createdAt,value
2022-11-05T00:00:15.382Z,9.44
2022-11-05T00:03:00.240Z,9.51
2022-11-05T00:05:45.104Z,9.53
2022-11-05T00:08:30.199Z,9.61
2022-11-05T00:10:56.866Z,9.64
2022-11-05T00:13:41.959Z,9.61
2022-11-05T00:16:26.827Z,9.68
2022-11-05T00:19:09.013Z,9.61
2022-11-05T00:21:56.394Z,9.60
2022-11-05T00:24:41.888Z,9.59
2022-11-05T00:27:09.172Z,9.57
2022-11-05T00:29:35.592Z,9.51
2022-11-05T00:32:02.000Z,9.53
2022-11-05T00:34:28.380Z,9.48
2022-11-05T00:36:54.791Z,9.48
2022-11-05T00:39:21.172Z,9.45
2022-11-05T00:42:07.535Z,9.39
2022-11-05T00:44:52.623Z,9.37
2022-11-05T00:47:37.694Z,9.34
2022-11-05T00:50:04.372Z,9.37
2022-11-05T00:52:49.031Z,9.31
2022-11-05T00:55:15.888Z,9.25
2022-11-05T00:57:42.316Z,9.27
2022-11-05T01:00:09.320Z,9.30
2022-11-05T01:02:35.810Z,9.22
2022-11-05T01:05:02.286Z,9.18
2022-11-05T01:07:28.707Z,9.29
2022-11-05T01:09:55.072Z,9.21
2022-11-05T01:12:21.626Z,9.22
2022-11-05T01:14:48.023Z,9.17
2022-11-05T01:17:14.461Z,8.99
2022-11-05T01:19:40.927Z,9.02
2022-11-05T01:22:07.327Z,9.00
2022-11-05T01:24:33.731Z,9.05
2022-11-05T01:27:00.179Z,9.03
2022-11-05T01:29:26.593Z,9.05
2022-11-05T01:31:53.036Z,9.03
2022-11-05T01:34:19.436Z,9.00
2022-11-05T01:36:45.835Z,8.99
2022-11-05T01:39:12.428Z,8.99
2022-11-05T01:41:39.049Z,8.98
2022-11-05T01:44:05.612Z,8.99
2022-11-05T01:46:39.135Z,8.87
2022-11-05T01:49:17.817Z,8.85
2022-11-05T01:51:44.944Z,8.82
2022-11-05T01:54:14.924Z,8.88
2022-11-05T01:56:44.091Z,8.88
2022-11-05T01:59:14.670Z,8.86
2022-11-05T02:01:41.311Z,8.82
2022-11-05T02:04:10.571Z,8.91
2022-11-05T02:06:39.343Z,8.88
2022-11-05T02:09:13.460Z,8.96
2022-11-05T02:11:39.840Z,8.78
2022-11-05T02:14:06.400Z,8.73
2022-11-05T02:16:48.332Z,8.83
2022-11-05T02:19:53.500Z,8.80
2022-11-05T02:22:39.248Z,8.73
2022-11-05T02:25:11.827Z,8.77
2022-11-05T02:28:07.094Z,8.65
2022-11-05T02:30:45.613Z,8.59
2022-11-05T02:33:26.741Z,8.54
2022-11-05T02:36:09.553Z,8.59
2022-11-05T02:38:41.442Z,8.47
2022-11-05T02:41:17.261Z,8.42
2022-11-05T02:43:57.967Z,8.60
2022-11-05T02:46:42.495Z,8.44
2022-11-05T02:49:18.024Z,8.32
2022-11-05T02:52:09.283Z,8.33
2022-11-05T02:54:43.272Z,8.28
2022-11-05T02:57:09.704Z,8.28
2022-11-05T02:59:36.070Z,8.27
2022-11-05T03:02:03.573Z,8.22
2022-11-05T03:04:30.750Z,8.03
2022-11-05T03:07:24.956Z,8.14
2022-11-05T03:10:09.051Z,8.11
2022-11-05T03:12:50.718Z,8.13
2022-11-05T03:15:25.698Z,8.12
2022-11-05T03:18:16.008Z,8.13
2022-11-05T03:21:01.352Z,8.13
2022-11-05T03:24:08.237Z,8.10
2022-11-05T03:26:42.809Z,8.10
2022-11-05T03:29:13.159Z,8.11
2022-11-05T03:31:41.013Z,8.10
2022-11-05T03:34:08.792Z,8.07
2022-11-05T03:36:41.389Z,8.14
2022-11-05T03:39:11.189Z,8.15
2022-11-05T03:41:43.142Z,8.21
2022-11-05T03:44:11.843Z,8.27
2022-11-05T03:46:44.282Z,8.33
2022-11-05T03:49:12.901Z,8.42
2022-11-05T03:51:48.556Z,8.45
2022-11-05T03:54:15.269Z,8.34
2022-11-05T03:56:50.968Z,8.34
2022-11-05T03:59:17.738Z,8.34
2022-11-05T04:01:44.240Z,8.24
2022-11-05T04:04:10.876Z,8.30
2022-11-05T04:06:55.985Z,8.21
2022-11-05T04:09:44.018Z,8.12
2022-11-05T04:12:29.373Z,8.12
2022-11-05T04:14:55.816Z,8.15
2022-11-05T04:17:22.256Z,8.03
2022-11-05T04:20:07.281Z,7.99
2022-11-05T04:22:53.589Z,8.00
2022-11-05T04:25:21.564Z,7.97
2022-11-05T04:27:48.454Z,7.91
2022-11-05T04:30:19.435Z,7.90
2022-11-05T04:33:15.863Z,7.84
2022-11-05T04:35:46.374Z,7.82
2022-11-05T04:38:18.000Z,7.79
2022-11-05T04:40:45.414Z,7.78
2022-11-05T04:43:18.627Z,7.69
2022-11-05T04:45:45.649Z,7.63
2022-11-05T04:48:12.756Z,7.55
2022-11-05T04:50:39.382Z,7.61
2022-11-05T04:53:05.823Z,7.53
2022-11-05T04:55:32.235Z,7.47
2022-11-05T04:57:58.640Z,7.50
2022-11-05T05:00:25.155Z,7.45
2022-11-05T05:02:51.687Z,7.39
2022-11-05T05:05:18.255Z,7.33
2022-11-05T05:07:44.758Z,7.32
2022-11-05T05:10:14.026Z,7.38
2022-11-05T05:12:40.441Z,7.33
2022-11-05T05:15:07.340Z,7.32
2022-11-05T05:17:34.096Z,7.44
2022-11-05T05:20:19.172Z,7.28
2022-11-05T05:22:52.278Z,7.31
2022-11-05T05:25:18.691Z,7.28
2022-11-05T05:27:45.127Z,7.25
2022-11-05T05:30:11.955Z,7.29
2022-11-05T05:32:38.341Z,7.31
2022-11-05T05:35:05.170Z,7.27
2022-11-05T05:37:31.610Z,7.31
2022-11-05T05:39:58.021Z,7.20
2022-11-05T05:42:24.431Z,7.18
2022-11-05T05:44:50.861Z,7.16
2022-11-05T05:47:17.288Z,7.12
2022-11-05T05:49:43.655Z,7.24
2022-11-05T05:52:10.059Z,7.15
2022-11-05T05:54:42.322Z,7.15
2022-11-05T05:57:09.325Z,7.21
2022-11-05T05:59:35.951Z,7.10
2022-11-05T06:02:02.518Z,7.13
2022-11-05T06:04:29.005Z,7.12
2022-11-05T06:06:55.595Z,7.24
2022-11-05T06:09:22.167Z,7.11
2022-11-05T06:11:48.621Z,7.22
2022-11-05T06:14:14.991Z,7.11
2022-11-05T06:16:41.489Z,7.15
2022-11-05T06:19:08.051Z,7.12
2022-11-05T06:21:34.708Z,7.01
2022-11-05T06:24:03.082Z,7.15
2022-11-05T06:26:29.763Z,7.16
2022-11-05T06:28:56.595Z,7.12
2022-11-05T06:31:23.320Z,7.15
2022-11-05T06:33:49.726Z,7.19
2022-11-05T06:36:17.493Z,7.22
2022-11-05T06:38:44.014Z,7.23
2022-11-05T06:41:10.901Z,7.28
2022-11-05T06:43:38.051Z,7.33
2022-11-05T06:46:04.629Z,7.33
2022-11-05T06:48:31.036Z,7.32
2022-11-05T06:50:57.544Z,7.35
2022-11-05T06:53:24.361Z,7.41
2022-11-05T06:55:50.844Z,7.56
2022-11-05T06:58:17.234Z,7.58
2022-11-05T07:00:43.638Z,7.61
2022-11-05T07:03:11.551Z,7.54
2022-11-05T07:05:46.933Z,7.63
2022-11-05T07:08:13.595Z,7.73
2022-11-05T07:10:40.185Z,7.76
2022-11-05T07:13:08.453Z,7.81
2022-11-05T07:15:35.960Z,7.85
2022-11-05T07:18:02.678Z,7.92
2022-11-05T07:20:33.508Z,8.01
2022-11-05T07:23:08.751Z,8.01
2022-11-05T07:25:35.633Z,8.07
2022-11-05T07:28:03.175Z,8.18
2022-11-05T07:30:30.304Z,8.26
2022-11-05T07:32:56.844Z,8.39
2022-11-05T07:35:23.568Z,8.43
2022-11-05T07:37:51.333Z,8.50
2022-11-05T07:40:21.552Z,8.42
2022-11-05T07:42:52.775Z,8.47
2022-11-05T07:45:19.715Z,8.52
2022-11-05T07:47:48.782Z,8.62
2022-11-05T07:50:16.769Z,8.89
2022-11-05T07:52:43.576Z,8.90
2022-11-05T07:55:10.737Z,8.95
2022-11-05T07:57:50.708Z,9.00
2022-11-05T08:00:20.243Z,9.09
2022-11-05T08:03:19.823Z,9.10
2022-11-05T08:05:47.689Z,9.11
2022-11-05T08:08:16.637Z,9.25
2022-11-05T08:10:43.294Z,9.41
2022-11-05T08:13:10.990Z,9.51
2022-11-05T08:15:37.912Z,9.57
2022-11-05T08:18:07.230Z,9.66
2022-11-05T08:20:34.843Z,9.75
2022-11-05T08:23:01.262Z,9.81
2022-11-05T08:25:28.082Z,10.02
2022-11-05T08:28:05.404Z,10.19
2022-11-05T08:30:32.595Z,10.44
2022-11-05T08:33:01.657Z,10.68
2022-11-05T08:35:28.649Z,10.93
2022-11-05T08:38:00.606Z,11.19
2022-11-05T08:40:27.280Z,11.43
2022-11-05T08:42:56.697Z,11.39
2022-11-05T08:45:23.149Z,11.39
2022-11-05T08:47:49.574Z,11.33
2022-11-05T08:50:16.785Z,11.36
2022-11-05T08:52:43.181Z,11.30
2022-11-05T08:55:09.846Z,11.32
2022-11-05T08:57:36.240Z,11.33
2022-11-05T09:00:02.887Z,11.45
2022-11-05T09:02:29.376Z,11.55
2022-11-05T09:04:55.839Z,11.62
2022-11-05T09:07:22.900Z,11.70
2022-11-05T09:09:49.374Z,11.76
2022-11-05T09:12:15.838Z,11.76
2022-11-05T09:14:42.414Z,11.92
2022-11-05T09:17:19.599Z,12.09
2022-11-05T09:19:46.503Z,12.03
2022-11-05T09:22:13.418Z,12.25
2022-11-05T09:24:41.005Z,12.40
2022-11-05T09:27:10.348Z,12.54
2022-11-05T09:29:36.983Z,12.64
2022-11-05T09:32:03.524Z,12.54
2022-11-05T09:34:30.114Z,12.64
2022-11-05T09:36:57.220Z,12.78
2022-11-05T09:39:24.002Z,12.97
2022-11-05T09:41:57.356Z,12.94
2022-11-05T09:44:59.394Z,12.89
2022-11-05T09:48:01.954Z,13.03
2022-11-05T09:50:34.325Z,12.87
2022-11-05T09:53:01.785Z,13.04
2022-11-05T09:55:33.037Z,13.27
2022-11-05T09:58:01.852Z,13.23
2022-11-05T10:00:30.167Z,13.23
2022-11-05T10:03:14.318Z,13.25
2022-11-05T10:05:41.039Z,13.32
2022-11-05T10:08:16.988Z,13.32
2022-11-05T10:10:47.905Z,13.38
2022-11-05T10:13:25.599Z,13.49
2022-11-05T10:15:58.706Z,13.83
2022-11-05T10:18:30.703Z,14.00
2022-11-05T10:20:57.245Z,14.04
2022-11-05T10:23:25.964Z,14.14
2022-11-05T10:25:55.901Z,14.11
2022-11-05T10:28:26.019Z,14.18
2022-11-05T10:31:06.435Z,14.21
2022-11-05T10:33:36.103Z,14.12
2022-11-05T10:36:07.062Z,14.16
2022-11-05T10:38:33.835Z,14.24
2022-11-05T10:41:25.181Z,14.23
2022-11-05T10:43:56.736Z,14.34
2022-11-05T10:46:29.015Z,14.42
2022-11-05T10:49:29.127Z,14.41
2022-11-05T10:51:57.352Z,14.49
2022-11-05T10:54:26.583Z,14.58
2022-11-05T10:56:53.092Z,14.60
2022-11-05T10:59:25.487Z,14.61
2022-11-05T11:02:01.933Z,14.76
2022-11-05T11:04:34.895Z,14.80
2022-11-05T11:07:04.249Z,14.87
2022-11-05T11:15:16.883Z,14.97
2022-11-05T11:17:43.283Z,14.82
2022-11-05T11:20:28.577Z,14.85
2022-11-05T11:23:12.738Z,15.06
2022-11-05T11:25:48.314Z,15.09
2022-11-05T11:28:48.226Z,15.14
2022-11-05T11:31:21.866Z,15.00
2022-11-05T11:33:52.016Z,14.98
2022-11-05T11:36:20.000Z,15.07
2022-11-05T11:38:46.591Z,15.17
2022-11-05T11:41:27.947Z,15.17
2022-11-05T11:43:58.008Z,15.15
2022-11-05T11:46:24.485Z,15.12
2022-11-05T11:48:51.344Z,15.19
2022-11-05T11:51:25.253Z,15.19
2022-11-05T11:53:56.996Z,15.18
2022-11-05T11:56:23.425Z,15.13
2022-11-05T11:58:54.759Z,15.24
2022-11-05T12:01:43.685Z,15.21
2022-11-05T12:04:22.282Z,15.32
2022-11-05T12:07:17.076Z,15.31
2022-11-05T12:10:08.297Z,15.35
2022-11-05T12:13:02.030Z,15.40
2022-11-05T12:15:51.989Z,15.38
2022-11-05T12:18:44.995Z,15.53
2022-11-05T12:21:51.285Z,15.68
2022-11-05T12:24:37.633Z,15.63
2022-11-05T12:27:25.949Z,15.66
2022-11-05T12:29:59.829Z,15.43
2022-11-05T12:32:35.505Z,15.43
2022-11-05T12:35:23.230Z,15.52
2022-11-05T12:38:12.068Z,15.57
2022-11-05T12:41:10.955Z,15.79
2022-11-05T12:44:04.261Z,15.90
2022-11-05T12:47:01.177Z,16.13
2022-11-05T12:49:57.619Z,15.99
2022-11-05T12:52:42.435Z,15.87
2022-11-05T12:55:20.641Z,15.82
2022-11-05T12:57:49.349Z,15.78
2022-11-05T13:00:20.314Z,15.88
2022-11-05T13:02:54.748Z,15.96
2022-11-05T13:05:25.912Z,16.03
2022-11-05T13:08:00.089Z,15.93
2022-11-05T13:10:35.437Z,15.93
2022-11-05T13:13:26.767Z,15.90
2022-11-05T13:15:56.527Z,15.77
2022-11-05T13:18:41.003Z,15.97
2022-11-05T13:21:08.928Z,15.95
2022-11-05T13:23:40.991Z,15.87
2022-11-05T13:26:35.022Z,15.67
2022-11-05T13:29:09.439Z,15.53
2022-11-05T13:31:43.586Z,15.39
2022-11-05T13:34:11.770Z,15.36
2022-11-05T13:37:00.098Z,15.24
2022-11-05T13:39:31.116Z,15.16
2022-11-05T13:42:04.824Z,15.21
2022-11-05T13:44:40.245Z,15.16
2022-11-05T13:47:37.766Z,15.14
2022-11-05T13:50:26.048Z,15.17
2022-11-05T13:53:14.571Z,15.16
2022-11-05T13:55:56.950Z,15.11
2022-11-05T13:58:37.679Z,15.03
2022-11-05T14:01:10.345Z,14.90
2022-11-05T14:03:37.222Z,14.89
2022-11-05T14:06:06.084Z,14.83
2022-11-05T14:08:41.786Z,14.74
2022-11-05T14:11:21.751Z,14.79
2022-11-05T14:13:51.952Z,14.77
2022-11-05T14:16:22.870Z,14.80
2022-11-05T14:19:12.628Z,14.73
2022-11-05T14:21:52.240Z,14.69
2022-11-05T14:24:21.631Z,14.65
2022-11-05T14:27:00.297Z,14.61
2022-11-05T14:29:42.940Z,14.64
2022-11-05T14:32:21.319Z,14.63
2022-11-05T14:35:07.952Z,14.65
2022-11-05T14:37:41.169Z,14.68
2022-11-05T14:40:31.620Z,14.61
2022-11-05T14:43:03.898Z,14.53
2022-11-05T14:45:38.875Z,14.53
2022-11-05T14:48:07.351Z,14.54
2022-11-05T14:50:39.788Z,14.60
2022-11-05T14:53:12.683Z,14.59
2022-11-05T14:55:41.441Z,14.50
2022-11-05T14:58:24.817Z,14.57
2022-11-05T15:00:51.878Z,14.52
2022-11-05T15:03:32.152Z,14.51
2022-11-05T15:06:20.551Z,14.45
2022-11-05T15:08:50.041Z,14.42
2022-11-05T15:11:31.318Z,14.35
2022-11-05T15:14:00.864Z,14.25
2022-11-05T15:16:36.824Z,14.13
2022-11-05T15:19:05.093Z,14.07
2022-11-05T15:21:33.397Z,14.03
2022-11-05T15:24:01.235Z,13.93
2022-11-05T15:26:36.844Z,13.85
2022-11-05T15:29:19.554Z,13.74
2022-11-05T15:31:46.481Z,13.63
2022-11-05T15:34:30.976Z,13.60
2022-11-05T15:37:23.752Z,13.53
2022-11-05T15:39:52.304Z,13.44
2022-11-05T15:42:22.383Z,13.42
2022-11-05T15:44:56.866Z,13.36
2022-11-05T15:47:30.909Z,13.34
2022-11-05T15:50:14.712Z,13.28
2022-11-05T15:52:49.855Z,13.28
2022-11-05T15:55:24.102Z,13.27
2022-11-05T15:58:03.592Z,13.27
2022-11-05T16:00:32.802Z,13.09
2022-11-05T16:03:30.782Z,13.17
2022-11-05T16:05:57.851Z,13.09
2022-11-05T16:08:28.885Z,13.07
2022-11-05T16:10:58.835Z,13.09
2022-11-05T16:13:28.326Z,13.04
2022-11-05T16:15:56.246Z,13.09
2022-11-05T16:18:24.542Z,12.99
2022-11-05T16:21:02.539Z,12.98
2022-11-05T16:23:52.929Z,12.99
2022-11-05T16:29:31.568Z,12.90
2022-11-05T16:32:04.470Z,13.01
2022-11-05T16:34:41.120Z,13.01
2022-11-05T16:37:12.548Z,12.94
2022-11-05T16:39:39.029Z,12.89
2022-11-05T16:42:24.338Z,12.87
2022-11-05T16:44:52.032Z,12.85
2022-11-05T16:47:19.515Z,12.76
2022-11-05T16:49:48.080Z,12.77
2022-11-05T16:52:14.685Z,12.74
2022-11-05T16:54:41.459Z,12.75
2022-11-05T16:57:14.517Z,12.76
2022-11-05T16:59:40.933Z,12.70
2022-11-05T17:02:10.894Z,12.75
2022-11-05T17:04:37.547Z,12.71
2022-11-05T17:07:03.975Z,12.76
2022-11-05T17:09:31.827Z,12.68
2022-11-05T17:12:00.669Z,12.64
2022-11-05T17:14:27.077Z,12.62
2022-11-05T17:16:57.109Z,12.59
2022-11-05T17:19:23.529Z,12.55
2022-11-05T17:21:50.103Z,12.48
2022-11-05T17:24:16.678Z,12.49
2022-11-05T17:26:43.192Z,12.38
2022-11-05T17:29:09.771Z,12.41
2022-11-05T17:31:36.349Z,12.46
2022-11-05T17:34:04.056Z,12.52
2022-11-05T17:36:30.486Z,12.56
2022-11-05T17:38:56.892Z,12.52
2022-11-05T17:41:23.924Z,12.62
2022-11-05T17:43:55.840Z,12.46
2022-11-05T17:46:23.005Z,12.56
2022-11-05T17:48:49.442Z,12.57
2022-11-05T17:51:18.435Z,12.58
2022-11-05T17:53:46.037Z,12.41
2022-11-05T17:56:15.885Z,12.58
2022-11-05T17:58:44.880Z,12.57
2022-11-05T18:01:24.979Z,12.57
2022-11-05T18:03:51.528Z,12.54
2022-11-05T18:06:18.036Z,12.63
2022-11-05T18:08:44.683Z,12.68
2022-11-05T18:11:11.350Z,12.73
2022-11-05T18:13:37.803Z,12.66
2022-11-05T18:16:04.376Z,12.67
2022-11-05T18:18:30.817Z,12.67
2022-11-05T18:20:58.243Z,12.73
2022-11-05T18:23:24.762Z,12.72
2022-11-05T18:25:51.193Z,12.76
2022-11-05T18:28:17.620Z,12.76
2022-11-05T18:30:44.496Z,12.81
2022-11-05T18:33:11.333Z,12.81
2022-11-05T18:35:43.577Z,12.71
2022-11-05T18:38:10.732Z,12.71
2022-11-05T18:40:37.141Z,12.70
2022-11-05T18:43:03.568Z,12.70
2022-11-05T18:45:31.754Z,12.65
2022-11-05T18:48:00.309Z,12.67
2022-11-05T18:50:27.165Z,12.63
2022-11-05T18:52:53.613Z,12.60
2022-11-05T18:55:20.220Z,12.69
2022-11-05T18:57:46.696Z,12.71
2022-11-05T19:00:13.762Z,12.63
2022-11-05T19:02:40.430Z,12.61
2022-11-05T19:05:27.876Z,12.60
2022-11-05T19:07:54.116Z,12.65
2022-11-05T19:10:20.766Z,12.65
2022-11-05T19:12:47.253Z,12.62
2022-11-05T19:15:13.704Z,12.60
2022-11-05T19:17:40.135Z,12.53
2022-11-05T19:20:07.512Z,12.49
2022-11-05T19:22:34.057Z,12.55
2022-11-05T19:25:00.530Z,12.53
2022-11-05T19:27:27.234Z,12.52
2022-11-05T19:29:53.882Z,12.47
2022-11-05T19:32:21.217Z,12.54
2022-11-05T19:34:47.642Z,12.64
2022-11-05T19:37:14.075Z,12.61
2022-11-05T19:39:41.287Z,12.60
2022-11-05T19:42:07.829Z,12.59
2022-11-05T19:44:34.290Z,12.57
2022-11-05T19:47:00.979Z,12.59
2022-11-05T19:49:28.466Z,12.55
2022-11-05T19:51:55.997Z,12.64
2022-11-05T19:54:22.440Z,12.62
2022-11-05T19:56:52.026Z,12.60
2022-11-05T19:59:18.607Z,12.61
2022-11-05T20:01:45.141Z,12.71
2022-11-05T20:04:12.142Z,12.68
2022-11-05T20:06:40.133Z,12.67
2022-11-05T20:09:24.500Z,12.62
2022-11-05T20:11:53.739Z,12.58
2022-11-05T20:14:20.556Z,12.58
2022-11-05T20:16:47.214Z,12.58
2022-11-05T20:19:15.528Z,12.44
2022-11-05T20:21:42.239Z,12.43
2022-11-05T20:24:11.121Z,12.37
2022-11-05T20:26:38.406Z,12.41
2022-11-05T20:29:04.856Z,12.48
2022-11-05T20:31:31.288Z,12.49
2022-11-05T20:33:57.857Z,12.46
2022-11-05T20:36:25.536Z,12.57
2022-11-05T20:38:58.112Z,12.65
2022-11-05T20:41:26.044Z,12.63
2022-11-05T20:43:52.720Z,12.63
2022-11-05T20:46:21.035Z,12.58
2022-11-05T20:48:47.969Z,12.47
2022-11-05T20:51:20.041Z,12.47
2022-11-05T20:53:46.693Z,12.48
2022-11-05T20:56:27.692Z,12.52
2022-11-05T20:58:58.682Z,12.56
2022-11-05T21:01:26.909Z,12.47
2022-11-05T21:03:54.734Z,12.59
2022-11-05T21:06:21.294Z,12.57
2022-11-05T21:08:48.568Z,12.65
2022-11-05T21:11:15.010Z,12.64
2022-11-05T21:13:41.659Z,12.63
2022-11-05T21:16:11.788Z,12.53
2022-11-05T21:18:40.570Z,12.43
2022-11-05T21:21:09.384Z,12.41
2022-11-05T21:23:35.969Z,12.35
2022-11-05T21:26:06.493Z,12.33
2022-11-05T21:28:33.641Z,12.31
2022-11-05T21:31:02.522Z,12.43
2022-11-05T21:33:29.571Z,12.45
2022-11-05T21:35:57.666Z,12.49
2022-11-05T21:38:24.558Z,12.43
2022-11-05T21:40:51.048Z,12.47
2022-11-05T21:43:17.773Z,12.49
2022-11-05T21:45:48.096Z,12.44
2022-11-05T21:48:15.703Z,12.43
2022-11-05T21:51:01.288Z,12.47
2022-11-05T21:53:46.655Z,12.50
2022-11-05T21:56:43.057Z,12.52
2022-11-05T21:59:35.835Z,12.50
2022-11-05T22:02:02.884Z,12.53
2022-11-05T22:04:34.917Z,12.54
2022-11-05T22:07:01.865Z,12.44
2022-11-05T22:09:31.437Z,12.36
2022-11-05T22:11:58.265Z,12.44
2022-11-05T22:14:24.866Z,12.44
2022-11-05T22:16:51.498Z,12.40
2022-11-05T22:19:18.215Z,12.41
2022-11-05T22:21:44.628Z,12.35
2022-11-05T22:24:11.038Z,12.40
2022-11-05T22:26:38.390Z,12.42
2022-11-05T22:29:05.860Z,12.41
2022-11-05T22:31:36.176Z,12.51
2022-11-05T22:34:04.249Z,12.59
2022-11-05T22:36:30.649Z,12.60
2022-11-05T22:38:57.397Z,12.63
2022-11-05T22:41:24.035Z,12.69
2022-11-05T22:43:50.571Z,12.65
2022-11-05T22:46:20.274Z,12.47
2022-11-05T22:48:47.092Z,12.50
2022-11-05T22:51:15.994Z,12.53
2022-11-05T22:53:43.491Z,12.64
2022-11-05T22:56:13.365Z,12.64
2022-11-05T22:58:40.210Z,12.68
2022-11-05T23:01:08.160Z,12.70
2022-11-05T23:03:35.176Z,12.68
2022-11-05T23:06:27.219Z,12.64
2022-11-05T23:09:12.482Z,12.68
2022-11-05T23:11:40.904Z,12.65
2022-11-05T23:14:12.266Z,12.65
2022-11-05T23:16:57.257Z,12.68
2022-11-05T23:19:42.837Z,12.71
2022-11-05T23:22:39.967Z,12.81
2022-11-05T23:25:09.650Z,12.78
2022-11-05T23:27:37.822Z,12.84
2022-11-05T23:30:14.553Z,12.74
2022-11-05T23:32:41.003Z,12.80
2022-11-05T23:35:07.783Z,12.93
2022-11-05T23:37:53.023Z,12.87
2022-11-05T23:40:22.401Z,12.83
2022-11-05T23:43:07.489Z,12.73
2022-11-05T23:45:49.552Z,12.81
2022-11-05T23:48:33.170Z,12.81
2022-11-05T23:51:04.481Z,12.94
2022-11-05T23:53:33.015Z,12.78
2022-11-05T23:56:01.915Z,12.88
2022-11-05T23:58:28.542Z,12.92
